Latest Weather Observations for Yulara

IDD60801

Issued at 4:05 am CST Saturday 22 November 2014 (issued every 30 minutes, with the page automatically refreshed every 10 minutes)

About weather observations | Map of weather stations | Latest weather observations for NT | Other Formats
Station Details ID: 015635 Name: YULARA AIRPORT Lat: -25.19 Lon: 130.97 Height: 492.0 m
Data from the previous 72 hours. | See also: Recent months at Yulara
Date/Time
CST
Temp
°C
App
Temp
°C
Dew
Point
Rel
Hum
%
Delta-T
°C
Wind Press
QNH
hPa
Press
MSL
hPa
Rain
since 9 am
mm
Dir
 
Spd
km/h
Gust
km/h
Spd
kts
Gust
kts
22/04:00am 25.3 24.2 10.7 40 8.4 SE 7 9 4 5 1009.4 1006.2 0.0
22/03:30am 26.5 25.0 10.6 37 9.1 NE 9 13 5 7 1009.3 1006.1 0.0
22/03:00am 27.8 25.5 10.5 34 10.0 N 13 20 7 11 1009.1 1005.9 0.0
22/02:30am 26.7 25.2 10.4 36 9.3 NNE 9 13 5 7 1009.3 1006.1 0.0
22/02:00am 27.9 26.1 11.0 35 9.8 N 11 13 6 7 1009.4 1006.2 0.0
22/01:30am 28.2 26.0 10.9 34 10.1 N 13 17 7 9 1009.6 1006.4 0.0
22/01:00am 27.8 26.7 10.5 34 10.0 N 7 11 4 6 1009.8 1006.6 0.0
22/12:30am 29.4 27.5 10.5 31 11.0 N 11 15 6 8 1010.0 1006.9 0.0
22/12:00am 29.7 27.9 10.8 31 11.1 N 11 15 6 8 1010.2 1007.1 0.0
 
Date/Time
CST
Temp
°C
App
Temp
°C
Dew
Point
Rel
Hum
%
Delta-T
°C
Wind Press
QNH
hPa
Press
MSL
hPa
Rain
since 9 am
mm
Dir
 
Spd
km/h
Gust
km/h
Spd
kts
Gust
kts
21/11:30pm 30.6 28.3 10.5 29 11.7 N 13 15 7 8 1010.4 1007.2 0.0
21/11:00pm 32.1 29.5 10.7 27 12.6 N 15 20 8 11 1010.5 1007.3 0.0
21/10:30pm 32.9 30.0 10.9 26 13.1 N 17 24 9 13 1010.5 1007.3 0.0
21/10:00pm 33.9 29.9 10.5 24 13.8 N 22 30 12 16 1010.1 1007.0 0.0
21/09:30pm 34.9 31.0 10.7 23 14.4 N 22 32 12 17 1009.7 1006.5 0.0
21/09:00pm 33.5 30.0 3.3 15 16.0 N 11 19 6 10 1009.4 1006.2 0.0
21/08:30pm 34.9 31.4 1.3 12 17.3 W 9 13 5 7 1008.8 1005.6 0.0
21/08:00pm 35.9 32.2 2.1 12 17.7 NW 11 13 6 7 1008.3 1005.1 0.0
21/07:30pm 37.5 32.8 0.7 10 19.1 NW 15 19 8 10 1008.0 1004.8 0.0
21/07:00pm 38.5 33.3 0.0 9 19.8 WNW 17 22 9 12 1007.7 1004.5 0.0
21/06:30pm 39.0 33.3 0.4 9 20.1 WNW 20 30 11 16 1007.3 1004.1 0.0
21/06:00pm 39.8 32.6 1.0 9 20.5 WNW 28 37 15 20 1006.9 1003.7 0.0
21/05:30pm 40.5 33.4 1.5 9 20.8 WNW 28 39 15 21 1006.6 1003.4 0.0
21/05:18pm 40.8 33.8 1.7 9 20.9 NW 28 54 15 29 1006.6 1003.4 0.0
21/05:00pm 40.7 35.0 3.1 10 20.5 W 22 37 12 20 1006.5 1003.3 0.0
21/04:37pm 41.5 34.8 3.7 10 20.9 WNW 28 54 15 29 1006.6 1003.4 0.0
21/04:30pm 41.7 36.8 3.9 10 21.1 WNW 19 33 10 18 1006.6 1003.4 0.0
21/04:18pm 41.5 34.8 3.7 10 20.9 WNW 28 46 15 25 1006.6 1003.4 0.0
21/04:00pm 42.1 36.5 5.6 11 20.8 NW 24 39 13 21 1006.8 1003.6 0.0
21/03:30pm 41.2 34.6 6.1 12 20.1 NW 30 44 16 24 1007.2 1004.0 0.0
21/03:02pm 41.2 35.0 6.1 12 20.1 WNW 28 46 15 25 1007.7 1004.5 0.0
21/03:00pm 40.5 33.8 5.6 12 19.8 WNW 30 46 16 25 1007.7 1004.5 0.0
21/02:35pm 40.7 34.0 5.7 12 19.9 NW 30 48 16 26 1008.0 1004.8 0.0
21/02:30pm 41.4 35.2 6.3 12 20.2 NW 28 41 15 22 1008.2 1004.9 0.0
21/02:00pm 41.1 37.7 6.0 12 20.0 NW 13 30 7 16 1008.7 1005.5 0.0
21/01:30pm 39.6 35.5 6.1 13 19.1 NW 17 24 9 13 1009.1 1005.9 0.0
21/01:00pm 40.3 35.3 6.6 13 19.3 NW 22 35 12 19 1009.8 1006.6 0.0
21/12:30pm 39.1 34.3 5.7 13 18.8 W 20 30 11 16 1010.2 1007.1 0.0
21/12:00pm 37.9 34.7 6.8 15 17.7 NNW 13 24 7 13 1010.8 1007.6 0.0
21/11:30am 37.3 34.1 9.8 19 16.3 WNW 17 22 9 12 1011.3 1008.1 0.0
21/11:00am 36.4 36.1 12.6 24 14.7 W 6 15 3 8 1011.7 1008.5 0.0
21/10:30am 35.2 33.2 12.8 26 13.8 N 15 26 8 14 1012.1 1009.0 0.0
21/10:00am 34.7 32.7 14.0 28 12.9 NNW 17 24 9 13 1012.3 1009.2 0.0
21/09:30am 33.0 31.6 14.6 33 11.5 N 15 20 8 11 1012.7 1009.5 0.0
21/09:00am 31.3 30.9 16.1 40 9.7 NNE 13 20 7 11 1012.8 1009.6 0.0
21/08:30am 30.2 28.7 16.2 42 8.9 NE 19 24 10 13 1012.9 1009.7 0.0
21/08:00am 29.3 28.5 17.2 48 7.8 E 17 24 9 13 1012.7 1009.5 0.0
21/07:30am 26.4 27.1 18.0 60 5.4 E 11 15 6 8 1012.7 1009.5 0.0
21/07:00am 24.3 24.9 18.5 70 3.7 SE 13 15 7 8 1012.1 1009.0 0.0
21/06:30am 22.9 23.9 18.7 77 2.7 SE 11 17 6 9 1011.8 1008.6 0.0
21/06:00am 22.2 23.6 18.6 80 2.3 SE 9 13 5 7 1011.5 1008.3 0.0
21/05:30am 22.5 23.5 18.7 79 2.4 SE 11 17 6 9 1011.0 1007.8 0.0
21/05:00am 22.4 23.5 18.8 80 2.3 SE 11 13 6 7 1010.8 1007.6 0.0
21/04:30am 22.3 24.2 18.9 81 2.2 SE 7 11 4 6 1010.8 1007.6 0.0
21/04:00am 22.4 24.2 18.8 80 2.3 SE 7 9 4 5 1010.7 1007.5 0.0
21/03:30am 22.5 24.5 18.7 79 2.4 S 6 9 3 5 1010.6 1007.4 0.0
21/03:00am 22.7 24.7 18.7 78 2.6 S 6 9 3 5 1010.5 1007.3 0.0
21/02:30am 23.1 24.2 18.8 77 2.8 S 11 13 6 7 1010.6 1007.4 0.0
21/02:00am 23.6 24.6 18.7 74 3.2 S 11 13 6 7 1011.0 1007.8 0.0
21/01:30am 24.2 24.6 18.2 69 3.9 S 13 17 7 9 1011.0 1007.8 0.0
21/01:00am 24.2 25.3 16.5 62 4.8 SSW 6 15 3 8 1011.1 1007.9 0.0
21/12:30am 25.5 27.3 16.4 57 5.7 NW 2 6 1 3 1011.3 1008.1 0.0
21/12:00am 25.9 27.0 16.5 56 5.9 NNW 6 6 3 3 1011.3 1008.1 0.0
 
Date/Time
CST
Temp
°C
App
Temp
°C
Dew
Point
Rel
Hum
%
Delta-T
°C
Wind Press
QNH
hPa
Press
MSL
hPa
Rain
since 9 am
mm
Dir
 
Spd
km/h
Gust
km/h
Spd
kts
Gust
kts
20/11:30pm 25.7 28.0 16.8 58 5.6 CALM 0 0 0 0 1011.5 1008.3 0.0
20/11:00pm 26.4 27.8 16.3 53 6.3 NW 4 9 2 5 1011.4 1008.2 0.0
20/10:30pm 27.1 28.9 17.3 55 6.3 NNE 4 9 2 5 1011.4 1008.2 0.0
20/10:00pm 26.9 28.5 16.8 54 6.4 SSE 4 13 2 7 1011.3 1008.1 0.0
20/09:30pm 27.8 28.8 16.4 50 7.2 SSE 6 9 3 5 1010.9 1007.7 0.0
20/09:00pm 28.0 28.6 16.9 51 7.1 S 9 13 5 7 1011.1 1007.9 0.0
20/08:30pm 29.0 28.0 16.5 46 8.0 S 17 24 9 13 1011.3 1008.1 0.0
20/08:00pm 28.6 28.7 17.5 51 7.1 SSE 13 20 7 11 1011.0 1007.8 0.0
20/07:30pm 32.7 31.5 12.9 30 12.1 W 11 20 6 11 1010.7 1007.5 0.0
20/07:00pm 33.6 29.1 12.6 28 12.8 WNW 28 39 15 21 1010.0 1006.9 0.0
20/06:30pm 35.4 32.3 11.7 23 14.4 N 19 24 10 13 1009.2 1006.0 0.0
20/06:00pm 35.9 32.8 12.2 24 14.5 NNW 20 30 11 16 1008.9 1005.7 0.0
20/05:33pm 36.0 30.0 12.2 23 14.6 NNW 35 43 19 23 1008.9 1005.7 0.0
20/05:30pm 37.0 35.5 11.8 22 15.4 NNW 11 24 6 13 1008.9 1005.7 0.0
20/05:00pm 36.1 34.4 12.3 24 14.6 N 13 22 7 12 1009.1 1005.9 0.0
20/04:30pm 37.0 32.8 12.4 23 15.2 NNW 26 37 14 20 1008.8 1005.6 0.0
20/04:20pm 37.0 31.3 11.8 22 15.4 N 33 52 18 28 1008.7 1005.5 0.0
20/04:13pm 36.9 30.2 11.0 21 15.6 NNW 37 52 20 28 1008.8 1005.6 0.0
20/04:00pm 37.0 35.5 11.8 22 15.4 NW 11 24 6 13 1009.1 1005.9 0.0
20/03:30pm 37.5 36.5 12.2 22 15.6 NNE 9 17 5 9 1009.5 1006.3 0.0
20/03:00pm 36.6 34.6 11.4 22 15.3 N 13 22 7 12 1010.1 1007.0 0.0
20/02:30pm 35.5 35.1 12.5 25 14.1 NW 6 15 3 8 1010.8 1007.6 0.0
20/02:00pm 35.5 34.6 12.5 25 14.1 SSE 9 13 5 7 1011.4 1008.2 0.0
20/01:30pm 34.2 32.1 12.5 27 13.3 NE 15 24 8 13 1011.9 1008.8 0.0
20/01:00pm 35.0 32.8 13.2 27 13.5 ENE 17 32 9 17 1012.6 1009.4 0.0
20/12:30pm 33.8 30.5 12.7 27 12.9 NE 22 37 12 20 1013.1 1009.9 0.0
20/12:00pm 33.8 33.5 13.3 29 12.6 NNW 7 17 4 9 1013.6 1010.4 0.0
20/11:30am 33.1 31.0 13.7 31 12.0 ENE 17 24 9 13 1014.2 1011.1 0.0
20/11:00am 32.3 29.5 14.4 33 11.2 ENE 22 24 12 13 1014.5 1011.4 0.0
20/10:30am 30.8 28.3 14.0 36 10.4 E 20 24 11 13 1015.0 1011.8 0.0
20/10:00am 30.7 28.5 14.8 38 9.9 E 20 37 11 20 1014.9 1011.7 0.0
20/09:30am 29.2 27.7 15.3 42 8.7 E 17 28 9 15 1015.3 1012.1 0.0
20/09:00am 28.5 27.6 15.8 46 8.0 ESE 15 22 8 12 1015.3 1012.1 0.0
20/08:30am 27.2 25.9 15.9 50 7.1 ESE 17 24 9 13 1014.7 1011.5 0.0
20/08:00am 26.9 25.7 16.2 52 6.7 E 17 24 9 13 1014.7 1011.5 0.0
20/07:30am 25.6 23.5 16.2 56 5.9 ENE 22 28 12 15 1014.0 1010.9 0.0
20/07:00am 24.9 23.4 16.3 59 5.4 ENE 19 24 10 13 1013.8 1010.7 0.0
20/06:30am 24.3 23.2 16.3 61 5.0 ENE 17 22 9 12 1013.6 1010.4 0.0
20/06:00am 24.3 22.9 16.6 62 4.8 E 19 22 10 12 1013.5 1010.3 0.0
20/05:30am 24.4 23.7 16.4 61 5.0 E 15 19 8 10 1013.7 1010.6 0.0
20/05:00am 24.3 24.4 16.6 62 4.8 E 11 15 6 8 1013.8 1010.7 0.0
20/04:30am 24.6 24.4 16.6 61 5.0 ESE 13 19 7 10 1013.6 1010.4 0.0
20/04:00am 24.4 24.5 16.4 61 5.0 SSE 11 17 6 9 1013.8 1010.7 0.0
20/03:30am 24.5 23.3 16.2 60 5.2 SSE 17 22 9 12 1013.3 1010.1 0.0
20/03:00am 24.8 23.1 16.2 58 5.4 SSE 20 30 11 16 1013.0 1009.8 0.0
20/02:30am 25.1 23.9 16.0 57 5.7 S 17 22 9 12 1013.4 1010.2 0.0
20/02:00am 25.3 24.1 16.2 57 5.7 SSE 17 22 9 12 1013.7 1010.6 0.0
20/01:30am 25.6 24.0 15.9 55 6.0 SSE 19 28 10 15 1014.1 1011.0 0.0
20/01:00am 25.7 23.4 15.7 54 6.2 S 22 30 12 16 1014.2 1011.1 0.0
20/12:30am 25.8 22.4 15.8 54 6.2 S 28 37 15 20 1014.2 1011.1 0.0
20/12:07am 26.0 21.6 15.7 53 6.4 S 33 52 18 28 1014.4 1011.3 0.0
20/12:00am 26.0 21.7 16.0 54 6.2 S 33 46 18 25 1014.3 1011.2 0.0
 
Date/Time
CST
Temp
°C
App
Temp
°C
Dew
Point
Rel
Hum
%
Delta-T
°C
Wind Press
QNH
hPa
Press
MSL
hPa
Rain
since 9 am
mm
Dir
 
Spd
km/h
Gust
km/h
Spd
kts
Gust
kts
19/11:30pm 26.5 21.9 16.1 52 6.5 SSW 35 56 19 30 1014.9 1011.7 0.0
19/11:03pm 27.4 24.2 16.4 51 6.9 S 28 46 15 25 1014.9 1011.7 0.0
19/11:00pm 27.4 23.9 16.4 51 6.9 S 30 46 16 25 1014.8 1011.6 0.0
19/10:30pm 28.0 23.9 16.0 48 7.5 S 32 52 17 28 1014.5 1011.4 0.0
19/10:01pm 28.4 24.3 16.0 47 7.8 SSW 32 50 17 27 1013.7 1010.6 0.0
19/10:00pm 28.5 24.2 15.8 46 8.0 SSW 33 50 18 27 1013.6 1010.4 0.0
19/09:44pm 30.0 25.1 13.7 37 10.0 SSW 32 50 17 27 1012.9 1009.7 0.0
19/09:34pm 32.0 27.2 11.7 28 12.1 SW 28 44 15 24 1012.5 1009.3 0.0
19/09:30pm 33.8 32.4 11.0 25 13.6 NW 9 13 5 7 1011.6 1008.4 0.0
19/09:17pm 33.5 28.6 11.4 26 13.2 NNW 28 50 15 27 1011.8 1008.6 0.0
19/09:00pm 33.4 31.3 6.6 19 14.9 NW 7 7 4 4 1011.4 1008.2 0.0
19/08:30pm 34.1 31.9 6.4 18 15.4 NNW 7 7 4 4 1011.2 1008.0 0.0
19/08:00pm 34.7 32.3 5.2 16 16.1 NNW 7 11 4 6 1011.0 1007.8 0.0
19/07:30pm 35.2 32.3 4.7 15 16.6 NNW 9 11 5 6 1010.7 1007.5 0.0
19/07:00pm 36.7 32.5 3.8 13 17.8 NNW 15 20 8 11 1010.4 1007.2 0.0
19/06:30pm 37.7 32.7 3.4 12 18.6 NNW 19 32 10 17 1010.1 1007.0 0.0
19/06:00pm 38.3 32.4 3.9 12 18.8 N 24 33 13 18 1009.9 1006.7 0.0
19/05:30pm 39.2 34.2 4.6 12 19.2 NNW 20 30 11 16 1009.8 1006.6 0.0
19/05:00pm 38.1 33.3 4.9 13 18.4 N 19 28 10 15 1009.9 1006.7 0.0
19/04:30pm 38.1 35.5 6.0 14 18.1 N 9 19 5 10 1010.2 1007.1 0.0
19/04:00pm 38.7 33.5 5.4 13 18.6 N 22 32 12 17 1010.6 1007.4 0.0
19/03:30pm 38.1 34.7 6.0 14 18.1 WNW 13 24 7 13 1011.2 1008.0 0.0
19/03:00pm 37.4 35.2 6.4 15 17.5 ENE 7 13 4 7 1011.7 1008.5 0.0
19/02:30pm 37.4 32.8 6.4 15 17.5 NNW 20 30 11 16 1012.3 1009.2 0.0
19/02:00pm 36.7 32.7 6.8 16 16.9 NNE 17 24 9 13 1013.0 1009.8 0.0
19/01:30pm 37.5 33.5 6.5 15 17.6 N 17 30 9 16 1013.5 1010.3 0.0
19/01:00pm 37.3 32.9 7.3 16 17.2 NNE 20 24 11 13 1014.0 1010.9 0.0
19/12:30pm 36.8 33.6 8.6 18 16.4 NNW 15 22 8 12 1014.8 1011.6 0.0
19/12:00pm 35.8 33.2 7.8 18 16.0 N 11 22 6 12 1015.4 1012.2 0.0
19/11:30am 35.4 32.4 7.5 18 15.9 N 13 22 7 12 1016.0 1012.9 0.0
19/11:00am 34.5 32.6 7.5 19 15.3 NNE 7 19 4 10 1016.4 1013.3 0.0
19/10:30am 33.4 30.3 7.4 20 14.6 NNE 13 24 7 13 1017.0 1013.8 0.0
19/10:00am 32.8 30.2 7.6 21 14.2 NNE 11 19 6 10 1017.2 1014.0 0.0
19/09:30am 31.9 29.6 7.5 22 13.6 NE 9 17 5 9 1017.6 1014.5 0.0
19/09:00am 30.0 26.9 7.2 24 12.6 ENE 13 20 7 11 1017.8 1014.7 0.0
19/08:30am 29.5 26.4 7.4 25 12.2 ENE 13 17 7 9 1017.9 1014.8 0.0
19/08:00am 27.4 24.2 6.8 27 11.1 E 13 17 7 9 1017.8 1014.7 0.0
19/07:30am 26.0 23.2 7.1 30 10.2 E 11 17 6 9 1017.6 1014.5 0.0
19/07:00am 23.8 21.7 8.2 37 8.5 SE 9 13 5 7 1017.3 1014.1 0.0
19/06:30am 21.4 19.9 9.3 46 6.6 S 7 11 4 6 1017.0 1013.8 0.0
19/06:00am 20.7 19.2 9.3 48 6.2 SE 7 9 4 5 1016.2 1013.1 0.0
19/05:30am 21.1 19.7 9.7 48 6.3 SE 7 9 4 5 1015.8 1012.7 0.0
19/05:00am 21.5 20.4 10.0 48 6.4 ESE 6 9 3 5 1015.6 1012.5 0.0
19/04:30am 22.3 21.2 10.1 46 6.8 ESE 6 9 3 5 1015.5 1012.3 0.0

Other Formats:

Comma delimited format used in spreadsheet applications
http://www.bom.gov.au/fwo/IDD60801/IDD60801.94462.axf

JavaScript Object Notation format (JSON) in row-major order
http://www.bom.gov.au/fwo/IDD60801/IDD60801.94462.json